sensor_id;sensor_type;location;lat;lon;timestamp;P1;durP1;ratioP1;P2;durP2;ratioP2
12587;SDS011;6359;51.450;7.346;2023-05-16T00:01:14;15.65;;;12.02;;
12587;SDS011;6359;51.450;7.346;2023-05-16T00:03:42;15.05;;;10.93;;
12587;SDS011;6359;51.450;7.346;2023-05-16T00:06:10;14.25;;;11.38;;
12587;SDS011;6359;51.450;7.346;2023-05-16T00:08:37;14.10;;;10.68;;
12587;SDS011;6359;51.450;7.346;2023-05-16T00:11:05;14.95;;;11.70;;
12587;SDS011;6359;51.450;7.346;2023-05-16T00:13:32;13.90;;;10.43;;
12587;SDS011;6359;51.450;7.346;2023-05-16T00:15:59;18.00;;;11.13;;
12587;SDS011;6359;51.450;7.346;2023-05-16T00:18:26;14.90;;;9.88;;
12587;SDS011;6359;51.450;7.346;2023-05-16T00:20:53;13.85;;;8.95;;
12587;SDS011;6359;51.450;7.346;2023-05-16T00:23:22;12.45;;;7.80;;
12587;SDS011;6359;51.450;7.346;2023-05-16T00:25:49;9.00;;;7.10;;
12587;SDS011;6359;51.450;7.346;2023-05-16T00:28:16;10.05;;;8.25;;
12587;SDS011;6359;51.450;7.346;2023-05-16T00:30:43;8.65;;;7.05;;
12587;SDS011;6359;51.450;7.346;2023-05-16T00:33:10;8.98;;;7.30;;
12587;SDS011;6359;51.450;7.346;2023-05-16T00:35:37;9.45;;;7.85;;
12587;SDS011;6359;51.450;7.346;2023-05-16T00:38:04;11.32;;;7.20;;
12587;SDS011;6359;51.450;7.346;2023-05-16T00:40:33;7.97;;;6.57;;
12587;SDS011;6359;51.450;7.346;2023-05-16T00:43:00;9.32;;;7.03;;
12587;SDS011;6359;51.450;7.346;2023-05-16T00:45:26;10.40;;;6.82;;
12587;SDS011;6359;51.450;7.346;2023-05-16T00:47:54;7.30;;;6.20;;
12587;SDS011;6359;51.450;7.346;2023-05-16T00:50:21;6.53;;;5.40;;
12587;SDS011;6359;51.450;7.346;2023-05-16T00:52:48;8.43;;;6.07;;
12587;SDS011;6359;51.450;7.346;2023-05-16T00:55:15;9.15;;;6.10;;
12587;SDS011;6359;51.450;7.346;2023-05-16T00:57:43;7.78;;;5.57;;
12587;SDS011;6359;51.450;7.346;2023-05-16T01:00:11;8.82;;;5.80;;
12587;SDS011;6359;51.450;7.346;2023-05-16T01:02:40;9.52;;;5.85;;
12587;SDS011;6359;51.450;7.346;2023-05-16T01:05:07;6.70;;;5.60;;
12587;SDS011;6359;51.450;7.346;2023-05-16T01:07:34;6.78;;;5.40;;
12587;SDS011;6359;51.450;7.346;2023-05-16T01:10:01;8.30;;;5.57;;
12587;SDS011;6359;51.450;7.346;2023-05-16T01:12:31;7.15;;;5.45;;
12587;SDS011;6359;51.450;7.346;2023-05-16T01:15:06;7.47;;;5.45;;
12587;SDS011;6359;51.450;7.346;2023-05-16T01:17:39;7.35;;;5.80;;
12587;SDS011;6359;51.450;7.346;2023-05-16T01:20:12;5.90;;;5.05;;
12587;SDS011;6359;51.450;7.346;2023-05-16T01:22:49;6.25;;;4.70;;
12587;SDS011;6359;51.450;7.346;2023-05-16T01:25:30;5.85;;;4.88;;
12587;SDS011;6359;51.450;7.346;2023-05-16T01:28:05;5.22;;;4.57;;
12587;SDS011;6359;51.450;7.346;2023-05-16T01:30:37;7.70;;;4.50;;
12587;SDS011;6359;51.450;7.346;2023-05-16T01:33:05;5.72;;;4.13;;
12587;SDS011;6359;51.450;7.346;2023-05-16T01:35:32;4.80;;;3.67;;
12587;SDS011;6359;51.450;7.346;2023-05-16T01:38:06;3.80;;;3.40;;
12587;SDS011;6359;51.450;7.346;2023-05-16T01:40:40;3.58;;;2.88;;
12587;SDS011;6359;51.450;7.346;2023-05-16T01:43:15;3.17;;;2.53;;
12587;SDS011;6359;51.450;7.346;2023-05-16T01:45:46;3.03;;;2.58;;
12587;SDS011;6359;51.450;7.346;2023-05-16T01:48:20;4.05;;;2.25;;
12587;SDS011;6359;51.450;7.346;2023-05-16T01:50:49;2.53;;;2.33;;
12587;SDS011;6359;51.450;7.346;2023-05-16T01:53:21;4.10;;;2.08;;
12587;SDS011;6359;51.450;7.346;2023-05-16T01:55:55;3.20;;;1.85;;
12587;SDS011;6359;51.450;7.346;2023-05-16T01:58:25;3.38;;;2.03;;
12587;SDS011;6359;51.450;7.346;2023-05-16T02:00:58;4.20;;;1.90;;
12587;SDS011;6359;51.450;7.346;2023-05-16T02:03:27;5.57;;;2.10;;
12587;SDS011;6359;51.450;7.346;2023-05-16T02:05:54;6.90;;;2.30;;
12587;SDS011;6359;51.450;7.346;2023-05-16T02:08:21;5.25;;;2.53;;
12587;SDS011;6359;51.450;7.346;2023-05-16T02:10:48;7.40;;;2.92;;
12587;SDS011;6359;51.450;7.346;2023-05-16T02:13:16;7.57;;;2.45;;
12587;SDS011;6359;51.450;7.346;2023-05-16T02:22:29;6.90;;;2.90;;
12587;SDS011;6359;51.450;7.346;2023-05-16T02:24:56;6.15;;;2.28;;
12587;SDS011;6359;51.450;7.346;2023-05-16T02:27:23;8.15;;;2.65;;
12587;SDS011;6359;51.450;7.346;2023-05-16T02:29:50;8.65;;;2.95;;
12587;SDS011;6359;51.450;7.346;2023-05-16T02:32:17;9.80;;;2.95;;
12587;SDS011;6359;51.450;7.346;2023-05-16T02:34:44;10.77;;;2.95;;
12587;SDS011;6359;51.450;7.346;2023-05-16T02:37:11;7.47;;;2.60;;
12587;SDS011;6359;51.450;7.346;2023-05-16T02:39:39;16.50;;;3.03;;
12587;SDS011;6359;51.450;7.346;2023-05-16T02:42:06;8.82;;;2.60;;
12587;SDS011;6359;51.450;7.346;2023-05-16T02:44:34;9.90;;;2.97;;
12587;SDS011;6359;51.450;7.346;2023-05-16T02:47:00;14.93;;;2.65;;
12587;SDS011;6359;51.450;7.346;2023-05-16T02:49:27;10.85;;;3.05;;
12587;SDS011;6359;51.450;7.346;2023-05-16T02:51:55;12.90;;;3.33;;
12587;SDS011;6359;51.450;7.346;2023-05-16T02:54:22;9.73;;;2.78;;
12587;SDS011;6359;51.450;7.346;2023-05-16T02:56:50;10.95;;;3.28;;
12587;SDS011;6359;51.450;7.346;2023-05-16T02:59:17;11.27;;;2.92;;
12587;SDS011;6359;51.450;7.346;2023-05-16T03:01:44;14.75;;;3.70;;
12587;SDS011;6359;51.450;7.346;2023-05-16T03:04:11;15.88;;;3.08;;
12587;SDS011;6359;51.450;7.346;2023-05-16T03:06:38;12.20;;;3.17;;
12587;SDS011;6359;51.450;7.346;2023-05-16T03:09:05;16.08;;;3.35;;
12587;SDS011;6359;51.450;7.346;2023-05-16T03:11:33;11.15;;;3.40;;
12587;SDS011;6359;51.450;7.346;2023-05-16T03:14:02;11.60;;;3.47;;
12587;SDS011;6359;51.450;7.346;2023-05-16T03:16:29;13.70;;;3.60;;
12587;SDS011;6359;51.450;7.346;2023-05-16T03:18:57;13.80;;;3.50;;
12587;SDS011;6359;51.450;7.346;2023-05-16T03:21:23;11.80;;;2.97;;
12587;SDS011;6359;51.450;7.346;2023-05-16T03:23:51;12.23;;;3.55;;
12587;SDS011;6359;51.450;7.346;2023-05-16T03:26:19;11.45;;;2.85;;
12587;SDS011;6359;51.450;7.346;2023-05-16T03:28:46;10.25;;;2.80;;
12587;SDS011;6359;51.450;7.346;2023-05-16T03:31:15;14.23;;;3.70;;
12587;SDS011;6359;51.450;7.346;2023-05-16T03:33:42;15.63;;;3.83;;
12587;SDS011;6359;51.450;7.346;2023-05-16T03:36:09;15.90;;;3.95;;
12587;SDS011;6359;51.450;7.346;2023-05-16T03:38:36;16.75;;;3.33;;
12587;SDS011;6359;51.450;7.346;2023-05-16T03:41:03;14.75;;;3.55;;
12587;SDS011;6359;51.450;7.346;2023-05-16T03:43:30;13.00;;;3.50;;
12587;SDS011;6359;51.450;7.346;2023-05-16T03:45:57;15.82;;;3.28;;
12587;SDS011;6359;51.450;7.346;2023-05-16T03:48:27;16.08;;;3.63;;
12587;SDS011;6359;51.450;7.346;2023-05-16T03:50:55;11.88;;;3.53;;
12587;SDS011;6359;51.450;7.346;2023-05-16T03:53:22;9.85;;;3.47;;
12587;SDS011;6359;51.450;7.346;2023-05-16T03:55:49;11.50;;;3.03;;
12587;SDS011;6359;51.450;7.346;2023-05-16T03:58:15;13.00;;;3.20;;
12587;SDS011;6359;51.450;7.346;2023-05-16T04:00:42;13.18;;;2.97;;
12587;SDS011;6359;51.450;7.346;2023-05-16T04:03:10;14.43;;;3.25;;
12587;SDS011;6359;51.450;7.346;2023-05-16T04:05:39;9.30;;;2.97;;
12587;SDS011;6359;51.450;7.346;2023-05-16T04:08:06;11.63;;;3.03;;
12587;SDS011;6359;51.450;7.346;2023-05-16T04:10:33;9.05;;;2.90;;
12587;SDS011;6359;51.450;7.346;2023-05-16T04:13:00;15.32;;;3.08;;
12587;SDS011;6359;51.450;7.346;2023-05-16T04:15:27;10.23;;;2.80;;
12587;SDS011;6359;51.450;7.346;2023-05-16T04:17:54;10.13;;;3.25;;
12587;SDS011;6359;51.450;7.346;2023-05-16T04:20:21;13.57;;;3.05;;
12587;SDS011;6359;51.450;7.346;2023-05-16T04:22:49;19.52;;;3.50;;
12587;SDS011;6359;51.450;7.346;2023-05-16T04:25:16;21.25;;;3.42;;
12587;SDS011;6359;51.450;7.346;2023-05-16T04:27:43;17.25;;;3.67;;
12587;SDS011;6359;51.450;7.346;2023-05-16T04:30:10;15.60;;;2.90;;
12587;SDS011;6359;51.450;7.346;2023-05-16T04:32:38;24.17;;;3.08;;
12587;SDS011;6359;51.450;7.346;2023-05-16T04:35:06;15.50;;;3.38;;
12587;SDS011;6359;51.450;7.346;2023-05-16T04:37:34;17.98;;;3.25;;
12587;SDS011;6359;51.450;7.346;2023-05-16T04:40:03;11.63;;;3.40;;
12587;SDS011;6359;51.450;7.346;2023-05-16T04:42:31;8.63;;;2.65;;
12587;SDS011;6359;51.450;7.346;2023-05-16T04:44:58;19.45;;;3.33;;
12587;SDS011;6359;51.450;7.346;2023-05-16T04:47:27;14.15;;;3.45;;
12587;SDS011;6359;51.450;7.346;2023-05-16T04:49:55;10.48;;;3.13;;
12587;SDS011;6359;51.450;7.346;2023-05-16T04:52:22;12.80;;;2.85;;
12587;SDS011;6359;51.450;7.346;2023-05-16T04:54:49;17.30;;;3.28;;
12587;SDS011;6359;51.450;7.346;2023-05-16T04:57:18;22.58;;;2.95;;
12587;SDS011;6359;51.450;7.346;2023-05-16T04:59:45;18.40;;;3.60;;
12587;SDS011;6359;51.450;7.346;2023-05-16T05:02:12;15.48;;;2.88;;
12587;SDS011;6359;51.450;7.346;2023-05-16T05:04:38;18.25;;;3.13;;
12587;SDS011;6359;51.450;7.346;2023-05-16T05:07:06;15.00;;;2.90;;
12587;SDS011;6359;51.450;7.346;2023-05-16T05:09:33;15.32;;;3.15;;
12587;SDS011;6359;51.450;7.346;2023-05-16T05:12:00;17.17;;;3.55;;
12587;SDS011;6359;51.450;7.346;2023-05-16T05:14:28;14.90;;;2.80;;
12587;SDS011;6359;51.450;7.346;2023-05-16T05:16:55;12.45;;;2.97;;
12587;SDS011;6359;51.450;7.346;2023-05-16T05:19:22;15.27;;;2.90;;
12587;SDS011;6359;51.450;7.346;2023-05-16T05:21:49;20.02;;;3.15;;
12587;SDS011;6359;51.450;7.346;2023-05-16T05:24:16;9.88;;;2.55;;
12587;SDS011;6359;51.450;7.346;2023-05-16T05:26:43;13.05;;;2.92;;
12587;SDS011;6359;51.450;7.346;2023-05-16T05:29:10;18.00;;;3.42;;
12587;SDS011;6359;51.450;7.346;2023-05-16T05:31:39;16.05;;;2.63;;
12587;SDS011;6359;51.450;7.346;2023-05-16T05:34:06;13.77;;;3.05;;
12587;SDS011;6359;51.450;7.346;2023-05-16T05:36:33;12.23;;;2.50;;
12587;SDS011;6359;51.450;7.346;2023-05-16T05:39:00;12.27;;;2.53;;
12587;SDS011;6359;51.450;7.346;2023-05-16T05:41:27;9.63;;;2.58;;
12587;SDS011;6359;51.450;7.346;2023-05-16T05:43:54;10.70;;;2.47;;
12587;SDS011;6359;51.450;7.346;2023-05-16T05:46:21;10.35;;;2.28;;
12587;SDS011;6359;51.450;7.346;2023-05-16T05:48:50;6.60;;;2.25;;
12587;SDS011;6359;51.450;7.346;2023-05-16T05:51:17;9.20;;;2.08;;
12587;SDS011;6359;51.450;7.346;2023-05-16T05:53:45;10.05;;;2.50;;
12587;SDS011;6359;51.450;7.346;2023-05-16T05:56:12;11.50;;;2.67;;
12587;SDS011;6359;51.450;7.346;2023-05-16T05:58:39;9.73;;;2.33;;
12587;SDS011;6359;51.450;7.346;2023-05-16T06:01:06;11.98;;;1.77;;
12587;SDS011;6359;51.450;7.346;2023-05-16T06:03:35;11.10;;;2.25;;
12587;SDS011;6359;51.450;7.346;2023-05-16T06:06:04;8.48;;;2.20;;
12587;SDS011;6359;51.450;7.346;2023-05-16T06:08:31;5.70;;;2.10;;
12587;SDS011;6359;51.450;7.346;2023-05-16T06:10:58;10.23;;;2.30;;
12587;SDS011;6359;51.450;7.346;2023-05-16T06:13:26;9.02;;;2.38;;
12587;SDS011;6359;51.450;7.346;2023-05-16T06:15:53;9.98;;;2.28;;
12587;SDS011;6359;51.450;7.346;2023-05-16T06:18:20;9.98;;;2.55;;
12587;SDS011;6359;51.450;7.346;2023-05-16T06:20:47;9.52;;;2.60;;
12587;SDS011;6359;51.450;7.346;2023-05-16T06:23:16;11.50;;;2.35;;
12587;SDS011;6359;51.450;7.346;2023-05-16T06:25:42;10.43;;;2.50;;
12587;SDS011;6359;51.450;7.346;2023-05-16T06:28:09;8.00;;;2.30;;
12587;SDS011;6359;51.450;7.346;2023-05-16T06:30:36;16.80;;;2.72;;
12587;SDS011;6359;51.450;7.346;2023-05-16T06:33:03;10.82;;;2.15;;
12587;SDS011;6359;51.450;7.346;2023-05-16T06:35:30;11.55;;;2.05;;
12587;SDS011;6359;51.450;7.346;2023-05-16T06:37:57;9.15;;;2.13;;
12587;SDS011;6359;51.450;7.346;2023-05-16T06:40:25;9.20;;;2.08;;
12587;SDS011;6359;51.450;7.346;2023-05-16T06:42:52;5.72;;;2.00;;
12587;SDS011;6359;51.450;7.346;2023-05-16T06:45:19;10.27;;;2.72;;
12587;SDS011;6359;51.450;7.346;2023-05-16T06:47:47;16.05;;;2.72;;
12587;SDS011;6359;51.450;7.346;2023-05-16T06:50:14;16.38;;;2.67;;
12587;SDS011;6359;51.450;7.346;2023-05-16T06:52:41;9.57;;;2.45;;
12587;SDS011;6359;51.450;7.346;2023-05-16T06:55:08;9.50;;;2.03;;
12587;SDS011;6359;51.450;7.346;2023-05-16T06:57:38;9.90;;;2.40;;
12587;SDS011;6359;51.450;7.346;2023-05-16T07:00:05;10.90;;;2.50;;
12587;SDS011;6359;51.450;7.346;2023-05-16T07:02:33;7.47;;;1.95;;
12587;SDS011;6359;51.450;7.346;2023-05-16T07:05:00;10.45;;;1.88;;
12587;SDS011;6359;51.450;7.346;2023-05-16T07:07:27;8.27;;;2.10;;
12587;SDS011;6359;51.450;7.346;2023-05-16T07:09:54;7.00;;;1.75;;
12587;SDS011;6359;51.450;7.346;2023-05-16T07:12:21;4.15;;;1.90;;
12587;SDS011;6359;51.450;7.346;2023-05-16T07:14:50;8.90;;;1.73;;
12587;SDS011;6359;51.450;7.346;2023-05-16T07:17:17;15.07;;;2.30;;
12587;SDS011;6359;51.450;7.346;2023-05-16T07:19:44;7.78;;;2.10;;
12587;SDS011;6359;51.450;7.346;2023-05-16T07:22:11;9.50;;;1.70;;
12587;SDS011;6359;51.450;7.346;2023-05-16T07:24:38;10.68;;;2.53;;
12587;SDS011;6359;51.450;7.346;2023-05-16T07:27:05;11.55;;;1.77;;
12587;SDS011;6359;51.450;7.346;2023-05-16T07:29:32;10.40;;;2.30;;
12587;SDS011;6359;51.450;7.346;2023-05-16T07:32:01;10.07;;;1.90;;
12587;SDS011;6359;51.450;7.346;2023-05-16T07:34:27;10.60;;;2.30;;
12587;SDS011;6359;51.450;7.346;2023-05-16T07:36:54;10.45;;;2.10;;
12587;SDS011;6359;51.450;7.346;2023-05-16T07:39:21;11.30;;;2.25;;
12587;SDS011;6359;51.450;7.346;2023-05-16T07:41:48;10.13;;;1.92;;
12587;SDS011;6359;51.450;7.346;2023-05-16T07:44:15;11.32;;;2.35;;
12587;SDS011;6359;51.450;7.346;2023-05-16T07:46:42;9.65;;;2.00;;
12587;SDS011;6359;51.450;7.346;2023-05-16T07:49:11;10.65;;;2.33;;
12587;SDS011;6359;51.450;7.346;2023-05-16T07:51:38;10.38;;;2.17;;
12587;SDS011;6359;51.450;7.346;2023-05-16T07:54:05;16.05;;;2.08;;
12587;SDS011;6359;51.450;7.346;2023-05-16T07:56:32;6.28;;;1.52;;
12587;SDS011;6359;51.450;7.346;2023-05-16T07:58:59;12.57;;;2.05;;
12587;SDS011;6359;51.450;7.346;2023-05-16T08:01:26;3.00;;;1.27;;
12587;SDS011;6359;51.450;7.346;2023-05-16T08:03:53;7.32;;;1.55;;
12587;SDS011;6359;51.450;7.346;2023-05-16T08:06:21;5.50;;;1.83;;
12587;SDS011;6359;51.450;7.346;2023-05-16T08:08:48;7.13;;;1.42;;
12587;SDS011;6359;51.450;7.346;2023-05-16T08:11:15;4.55;;;1.38;;
12587;SDS011;6359;51.450;7.346;2023-05-16T08:13:42;6.10;;;1.52;;
12587;SDS011;6359;51.450;7.346;2023-05-16T08:16:09;5.68;;;1.30;;
12587;SDS011;6359;51.450;7.346;2023-05-16T08:18:36;6.07;;;1.30;;
12587;SDS011;6359;51.450;7.346;2023-05-16T08:21:03;4.13;;;1.25;;
12587;SDS011;6359;51.450;7.346;2023-05-16T08:23:32;4.35;;;1.15;;
12587;SDS011;6359;51.450;7.346;2023-05-16T08:26:00;4.40;;;1.35;;
12587;SDS011;6359;51.450;7.346;2023-05-16T08:28:27;3.50;;;1.27;;
12587;SDS011;6359;51.450;7.346;2023-05-16T08:30:54;4.53;;;1.20;;
12587;SDS011;6359;51.450;7.346;2023-05-16T08:33:20;7.22;;;1.60;;
12587;SDS011;6359;51.450;7.346;2023-05-16T08:35:49;3.65;;;1.35;;
12587;SDS011;6359;51.450;7.346;2023-05-16T08:38:17;8.32;;;1.35;;
12587;SDS011;6359;51.450;7.346;2023-05-16T08:40:46;3.58;;;1.45;;
12587;SDS011;6359;51.450;7.346;2023-05-16T08:43:12;4.93;;;1.45;;
12587;SDS011;6359;51.450;7.346;2023-05-16T08:45:40;6.82;;;1.75;;
12587;SDS011;6359;51.450;7.346;2023-05-16T08:48:07;4.30;;;1.35;;
12587;SDS011;6359;51.450;7.346;2023-05-16T08:50:36;7.82;;;1.67;;
12587;SDS011;6359;51.450;7.346;2023-05-16T08:53:03;4.18;;;1.30;;
12587;SDS011;6359;51.450;7.346;2023-05-16T08:55:32;3.00;;;1.27;;
12587;SDS011;6359;51.450;7.346;2023-05-16T08:58:02;4.50;;;0.90;;
12587;SDS011;6359;51.450;7.346;2023-05-16T09:00:30;3.42;;;1.35;;
12587;SDS011;6359;51.450;7.346;2023-05-16T09:02:57;5.15;;;1.10;;
12587;SDS011;6359;51.450;7.346;2023-05-16T09:05:24;8.00;;;1.50;;
12587;SDS011;6359;51.450;7.346;2023-05-16T09:07:52;4.90;;;1.40;;
12587;SDS011;6359;51.450;7.346;2023-05-16T09:10:19;6.35;;;1.40;;
12587;SDS011;6359;51.450;7.346;2023-05-16T09:12:46;4.90;;;1.15;;
12587;SDS011;6359;51.450;7.346;2023-05-16T09:15:16;4.75;;;1.50;;
12587;SDS011;6359;51.450;7.346;2023-05-16T09:17:44;6.43;;;1.35;;
12587;SDS011;6359;51.450;7.346;2023-05-16T09:20:12;8.30;;;1.55;;
12587;SDS011;6359;51.450;7.346;2023-05-16T09:22:48;5.95;;;1.50;;
12587;SDS011;6359;51.450;7.346;2023-05-16T09:25:17;2.75;;;1.40;;
12587;SDS011;6359;51.450;7.346;2023-05-16T09:27:45;9.30;;;1.80;;
12587;SDS011;6359;51.450;7.346;2023-05-16T09:30:14;5.30;;;1.88;;
12587;SDS011;6359;51.450;7.346;2023-05-16T09:32:42;6.85;;;1.73;;
12587;SDS011;6359;51.450;7.346;2023-05-16T09:35:10;5.60;;;1.55;;
12587;SDS011;6359;51.450;7.346;2023-05-16T09:37:43;3.78;;;1.50;;
12587;SDS011;6359;51.450;7.346;2023-05-16T09:40:11;5.03;;;1.40;;
12587;SDS011;6359;51.450;7.346;2023-05-16T09:42:38;5.97;;;1.30;;
12587;SDS011;6359;51.450;7.346;2023-05-16T09:45:06;3.22;;;1.40;;
12587;SDS011;6359;51.450;7.346;2023-05-16T09:47:38;3.17;;;1.20;;
12587;SDS011;6359;51.450;7.346;2023-05-16T09:50:10;3.22;;;1.00;;
12587;SDS011;6359;51.450;7.346;2023-05-16T09:52:39;6.57;;;1.17;;
12587;SDS011;6359;51.450;7.346;2023-05-16T09:55:06;3.47;;;1.35;;
12587;SDS011;6359;51.450;7.346;2023-05-16T09:57:35;4.82;;;1.50;;
12587;SDS011;6359;51.450;7.346;2023-05-16T10:00:04;3.30;;;1.40;;
12587;SDS011;6359;51.450;7.346;2023-05-16T10:02:34;4.00;;;1.25;;
12587;SDS011;6359;51.450;7.346;2023-05-16T10:05:04;5.78;;;1.42;;
12587;SDS011;6359;51.450;7.346;2023-05-16T10:07:31;4.95;;;1.25;;
12587;SDS011;6359;51.450;7.346;2023-05-16T10:09:59;1.88;;;1.05;;
12587;SDS011;6359;51.450;7.346;2023-05-16T10:12:30;4.40;;;1.35;;
12587;SDS011;6359;51.450;7.346;2023-05-16T10:14:59;3.78;;;1.35;;
12587;SDS011;6359;51.450;7.346;2023-05-16T10:17:29;6.32;;;1.30;;
12587;SDS011;6359;51.450;7.346;2023-05-16T10:19:57;6.80;;;1.40;;
12587;SDS011;6359;51.450;7.346;2023-05-16T10:22:28;3.75;;;1.20;;
12587;SDS011;6359;51.450;7.346;2023-05-16T10:24:59;4.25;;;1.23;;
12587;SDS011;6359;51.450;7.346;2023-05-16T10:27:34;2.13;;;1.00;;
12587;SDS011;6359;51.450;7.346;2023-05-16T10:30:01;3.42;;;1.10;;
12587;SDS011;6359;51.450;7.346;2023-05-16T10:32:29;3.13;;;1.20;;
12587;SDS011;6359;51.450;7.346;2023-05-16T10:34:57;3.67;;;1.40;;
12587;SDS011;6359;51.450;7.346;2023-05-16T10:37:28;4.68;;;1.10;;
12587;SDS011;6359;51.450;7.346;2023-05-16T10:39:56;6.38;;;1.45;;
12587;SDS011;6359;51.450;7.346;2023-05-16T10:42:26;5.47;;;1.10;;
12587;SDS011;6359;51.450;7.346;2023-05-16T10:44:53;4.22;;;1.25;;
12587;SDS011;6359;51.450;7.346;2023-05-16T10:47:20;4.07;;;1.45;;
12587;SDS011;6359;51.450;7.346;2023-05-16T10:49:47;6.05;;;1.70;;
12587;SDS011;6359;51.450;7.346;2023-05-16T10:52:14;5.03;;;1.33;;
12587;SDS011;6359;51.450;7.346;2023-05-16T10:54:45;2.25;;;1.17;;
12587;SDS011;6359;51.450;7.346;2023-05-16T10:57:17;6.03;;;1.67;;
12587;SDS011;6359;51.450;7.346;2023-05-16T10:59:48;5.18;;;1.50;;
12587;SDS011;6359;51.450;7.346;2023-05-16T11:02:22;7.20;;;1.73;;
12587;SDS011;6359;51.450;7.346;2023-05-16T11:04:50;4.80;;;1.30;;
12587;SDS011;6359;51.450;7.346;2023-05-16T11:07:18;4.93;;;1.10;;
12587;SDS011;6359;51.450;7.346;2023-05-16T11:10:01;3.75;;;1.27;;
12587;SDS011;6359;51.450;7.346;2023-05-16T11:12:42;4.70;;;1.30;;
12587;SDS011;6359;51.450;7.346;2023-05-16T11:15:16;4.25;;;1.33;;
12587;SDS011;6359;51.450;7.346;2023-05-16T11:17:49;4.38;;;1.33;;
12587;SDS011;6359;51.450;7.346;2023-05-16T11:20:25;7.88;;;1.48;;
12587;SDS011;6359;51.450;7.346;2023-05-16T11:25:50;4.75;;;1.05;;
12587;SDS011;6359;51.450;7.346;2023-05-16T11:28:18;5.03;;;1.17;;
12587;SDS011;6359;51.450;7.346;2023-05-16T11:30:47;5.03;;;1.50;;
12587;SDS011;6359;51.450;7.346;2023-05-16T11:33:16;4.25;;;1.63;;
12587;SDS011;6359;51.450;7.346;2023-05-16T11:35:44;7.50;;;1.20;;
12587;SDS011;6359;51.450;7.346;2023-05-16T11:38:28;3.60;;;1.13;;
12587;SDS011;6359;51.450;7.346;2023-05-16T11:41:01;6.10;;;1.42;;
12587;SDS011;6359;51.450;7.346;2023-05-16T11:43:35;4.50;;;1.25;;
12587;SDS011;6359;51.450;7.346;2023-05-16T11:46:03;3.10;;;1.30;;
12587;SDS011;6359;51.450;7.346;2023-05-16T11:48:30;2.85;;;1.10;;
12587;SDS011;6359;51.450;7.346;2023-05-16T11:50:57;6.78;;;1.45;;
12587;SDS011;6359;51.450;7.346;2023-05-16T11:53:24;5.85;;;1.50;;
12587;SDS011;6359;51.450;7.346;2023-05-16T11:55:53;7.03;;;1.42;;
12587;SDS011;6359;51.450;7.346;2023-05-16T11:58:22;3.80;;;1.52;;
12587;SDS011;6359;51.450;7.346;2023-05-16T12:00:49;4.65;;;1.23;;
12587;SDS011;6359;51.450;7.346;2023-05-16T12:03:17;5.57;;;1.63;;
12587;SDS011;6359;51.450;7.346;2023-05-16T12:05:48;6.80;;;1.63;;
12587;SDS011;6359;51.450;7.346;2023-05-16T12:08:17;3.85;;;1.40;;
12587;SDS011;6359;51.450;7.346;2023-05-16T12:10:45;4.82;;;1.40;;
12587;SDS011;6359;51.450;7.346;2023-05-16T12:13:12;3.90;;;1.30;;
12587;SDS011;6359;51.450;7.346;2023-05-16T12:15:41;5.25;;;1.63;;
12587;SDS011;6359;51.450;7.346;2023-05-16T12:18:08;5.20;;;1.70;;
12587;SDS011;6359;51.450;7.346;2023-05-16T12:20:35;6.63;;;1.40;;
12587;SDS011;6359;51.450;7.346;2023-05-16T12:23:02;4.85;;;1.50;;
12587;SDS011;6359;51.450;7.346;2023-05-16T12:25:30;3.08;;;1.58;;
12587;SDS011;6359;51.450;7.346;2023-05-16T12:28:00;7.47;;;1.50;;
12587;SDS011;6359;51.450;7.346;2023-05-16T12:30:28;4.47;;;1.38;;
12587;SDS011;6359;51.450;7.346;2023-05-16T12:32:58;1.83;;;1.10;;
12587;SDS011;6359;51.450;7.346;2023-05-16T12:35:28;3.97;;;1.33;;
12587;SDS011;6359;51.450;7.346;2023-05-16T12:37:57;7.25;;;1.63;;
12587;SDS011;6359;51.450;7.346;2023-05-16T12:40:26;6.13;;;1.60;;
12587;SDS011;6359;51.450;7.346;2023-05-16T12:42:54;4.93;;;1.60;;
12587;SDS011;6359;51.450;7.346;2023-05-16T12:45:21;2.58;;;1.02;;
12587;SDS011;6359;51.450;7.346;2023-05-16T12:47:48;3.83;;;0.98;;
12587;SDS011;6359;51.450;7.346;2023-05-16T12:50:17;2.53;;;1.13;;
12587;SDS011;6359;51.450;7.346;2023-05-16T12:52:47;5.65;;;1.50;;
12587;SDS011;6359;51.450;7.346;2023-05-16T12:55:15;4.57;;;1.30;;
12587;SDS011;6359;51.450;7.346;2023-05-16T12:57:42;5.15;;;1.45;;
12587;SDS011;6359;51.450;7.346;2023-05-16T13:00:12;1.85;;;1.15;;
12587;SDS011;6359;51.450;7.346;2023-05-16T13:02:40;4.63;;;1.10;;
12587;SDS011;6359;51.450;7.346;2023-05-16T13:05:07;4.53;;;1.13;;
12587;SDS011;6359;51.450;7.346;2023-05-16T13:07:37;4.18;;;1.40;;
12587;SDS011;6359;51.450;7.346;2023-05-16T13:10:05;5.22;;;1.17;;
12587;SDS011;6359;51.450;7.346;2023-05-16T13:12:34;3.83;;;1.42;;
12587;SDS011;6359;51.450;7.346;2023-05-16T13:15:01;1.88;;;1.10;;
12587;SDS011;6359;51.450;7.346;2023-05-16T13:17:29;3.88;;;1.20;;
12587;SDS011;6359;51.450;7.346;2023-05-16T13:19:56;5.55;;;1.20;;
12587;SDS011;6359;51.450;7.346;2023-05-16T13:22:23;3.83;;;1.50;;
12587;SDS011;6359;51.450;7.346;2023-05-16T13:24:51;4.57;;;1.50;;
12587;SDS011;6359;51.450;7.346;2023-05-16T13:27:18;2.30;;;0.98;;
12587;SDS011;6359;51.450;7.346;2023-05-16T13:29:45;4.30;;;1.50;;
12587;SDS011;6359;51.450;7.346;2023-05-16T13:32:12;2.83;;;1.30;;
12587;SDS011;6359;51.450;7.346;2023-05-16T13:34:39;4.13;;;1.10;;
12587;SDS011;6359;51.450;7.346;2023-05-16T13:37:06;4.43;;;1.45;;
12587;SDS011;6359;51.450;7.346;2023-05-16T13:39:33;3.67;;;1.30;;
12587;SDS011;6359;51.450;7.346;2023-05-16T13:42:01;5.38;;;1.10;;
12587;SDS011;6359;51.450;7.346;2023-05-16T13:44:29;3.05;;;1.35;;
12587;SDS011;6359;51.450;7.346;2023-05-16T13:46:56;3.97;;;1.15;;
12587;SDS011;6359;51.450;7.346;2023-05-16T13:49:23;3.45;;;1.20;;
12587;SDS011;6359;51.450;7.346;2023-05-16T13:51:50;3.28;;;1.13;;
12587;SDS011;6359;51.450;7.346;2023-05-16T13:54:17;2.38;;;0.95;;
12587;SDS011;6359;51.450;7.346;2023-05-16T13:56:46;2.38;;;1.15;;
12587;SDS011;6359;51.450;7.346;2023-05-16T13:59:14;3.40;;;1.20;;
12587;SDS011;6359;51.450;7.346;2023-05-16T14:01:41;2.40;;;1.15;;
12587;SDS011;6359;51.450;7.346;2023-05-16T14:04:08;3.15;;;1.00;;
12587;SDS011;6359;51.450;7.346;2023-05-16T14:06:35;3.60;;;1.38;;
12587;SDS011;6359;51.450;7.346;2023-05-16T14:09:02;2.88;;;1.63;;
12587;SDS011;6359;51.450;7.346;2023-05-16T14:11:29;6.78;;;1.58;;
12587;SDS011;6359;51.450;7.346;2023-05-16T14:13:56;5.93;;;1.13;;
12587;SDS011;6359;51.450;7.346;2023-05-16T14:16:25;5.15;;;1.10;;
12587;SDS011;6359;51.450;7.346;2023-05-16T14:18:52;3.55;;;1.40;;
12587;SDS011;6359;51.450;7.346;2023-05-16T14:21:19;5.50;;;1.13;;
12587;SDS011;6359;51.450;7.346;2023-05-16T14:23:46;4.10;;;1.08;;
12587;SDS011;6359;51.450;7.346;2023-05-16T14:26:13;3.08;;;1.30;;
12587;SDS011;6359;51.450;7.346;2023-05-16T14:28:40;4.20;;;1.42;;
12587;SDS011;6359;51.450;7.346;2023-05-16T14:31:07;4.85;;;1.23;;
12587;SDS011;6359;51.450;7.346;2023-05-16T14:33:36;3.55;;;1.48;;
12587;SDS011;6359;51.450;7.346;2023-05-16T14:36:05;5.45;;;1.52;;
12587;SDS011;6359;51.450;7.346;2023-05-16T14:38:33;4.15;;;1.63;;
12587;SDS011;6359;51.450;7.346;2023-05-16T14:41:00;5.15;;;1.60;;
12587;SDS011;6359;51.450;7.346;2023-05-16T14:43:27;6.05;;;1.35;;
12587;SDS011;6359;51.450;7.346;2023-05-16T14:45:55;4.43;;;1.35;;
12587;SDS011;6359;51.450;7.346;2023-05-16T14:48:21;2.83;;;1.25;;
12587;SDS011;6359;51.450;7.346;2023-05-16T14:50:49;2.97;;;1.40;;
12587;SDS011;6359;51.450;7.346;2023-05-16T14:53:17;6.07;;;1.48;;
12587;SDS011;6359;51.450;7.346;2023-05-16T14:55:45;3.63;;;1.00;;
12587;SDS011;6359;51.450;7.346;2023-05-16T14:58:13;4.43;;;1.50;;
12587;SDS011;6359;51.450;7.346;2023-05-16T15:00:40;3.92;;;1.55;;
12587;SDS011;6359;51.450;7.346;2023-05-16T15:03:07;5.22;;;1.50;;
12587;SDS011;6359;51.450;7.346;2023-05-16T15:05:34;4.55;;;1.45;;
12587;SDS011;6359;51.450;7.346;2023-05-16T15:08:02;3.00;;;1.40;;
12587;SDS011;6359;51.450;7.346;2023-05-16T15:10:30;2.63;;;1.30;;
12587;SDS011;6359;51.450;7.346;2023-05-16T15:12:56;6.53;;;1.60;;